createdAt,value
2023-01-19T00:01:56.444Z,96023.59
2023-01-19T00:04:26.979Z,96021.75
2023-01-19T00:06:57.483Z,96033.66
2023-01-19T00:09:28.325Z,96028.47
2023-01-19T00:11:58.848Z,96019.72
2023-01-19T00:14:31.960Z,96027.34
2023-01-19T00:17:03.471Z,96029.97
2023-01-19T00:19:33.989Z,96025.25
2023-01-19T00:22:06.326Z,96036.13
2023-01-19T00:24:37.120Z,96022.75
2023-01-19T00:27:07.773Z,96031.19
2023-01-19T00:29:44.092Z,96030.75
2023-01-19T00:32:14.682Z,96027.13
2023-01-19T00:34:49.718Z,96037.25
2023-01-19T00:37:20.983Z,96038.47
2023-01-19T00:39:51.614Z,96028.00
2023-01-19T00:42:34.352Z,96025.53
2023-01-19T00:45:08.265Z,96043.56
2023-01-19T00:47:39.502Z,96042.34
2023-01-19T00:50:12.016Z,96053.78
2023-01-19T00:52:42.697Z,96046.44
2023-01-19T00:55:14.734Z,96021.06
2023-01-19T00:57:46.148Z,96020.22
2023-01-19T01:00:21.841Z,96017.78
2023-01-19T01:02:54.336Z,96029.06
2023-01-19T01:05:24.899Z,96039.06
2023-01-19T01:07:55.396Z,96036.84
2023-01-19T01:10:28.477Z,96044.81
2023-01-19T01:12:59.214Z,96040.44
2023-01-19T01:15:32.596Z,96040.19
2023-01-19T01:18:03.457Z,96047.53
2023-01-19T01:20:35.058Z,96051.59
2023-01-19T01:23:05.704Z,96020.75
2023-01-19T01:25:38.177Z,96064.19
2023-01-19T01:28:09.985Z,96054.69
2023-01-19T01:30:44.345Z,96057.09
2023-01-19T01:33:14.860Z,96056.03
2023-01-19T01:35:45.446Z,96052.72
2023-01-19T01:38:16.103Z,96055.34
2023-01-19T01:40:47.305Z,96050.38
2023-01-19T01:43:20.706Z,96059.00
2023-01-19T01:45:55.189Z,96049.50
2023-01-19T01:48:33.674Z,96051.97
2023-01-19T01:51:21.709Z,96048.28
2023-01-19T01:53:58.611Z,96047.03
2023-01-19T01:56:34.318Z,96039.00
2023-01-19T01:59:08.496Z,96039.22
2023-01-19T02:01:54.673Z,96040.63
2023-01-19T02:04:26.947Z,96034.69
2023-01-19T02:07:09.799Z,96039.00
2023-01-19T02:09:52.970Z,96022.16
2023-01-19T02:12:36.312Z,96044.34
2023-01-19T02:15:07.711Z,96026.66
2023-01-19T02:17:41.050Z,96040.03
2023-01-19T02:20:13.456Z,96021.16
2023-01-19T02:22:50.200Z,96040.03
2023-01-19T02:25:23.683Z,96040.47
2023-01-19T02:27:56.613Z,96041.06
2023-01-19T02:30:28.077Z,96040.03
2023-01-19T02:32:59.132Z,96040.84
2023-01-19T02:35:30.478Z,96046.19
2023-01-19T02:38:01.873Z,96043.31
2023-01-19T02:40:35.308Z,96029.94
2023-01-19T02:43:09.005Z,96036.34
2023-01-19T02:45:41.755Z,96037.97
2023-01-19T02:48:12.435Z,96038.75
2023-01-19T02:50:49.655Z,96040.84
2023-01-19T02:53:37.131Z,96044.78
2023-01-19T02:56:27.772Z,96055.63
2023-01-19T02:59:07.307Z,96058.09
2023-01-19T03:01:49.808Z,96059.34
2023-01-19T03:04:31.783Z,96047.03
2023-01-19T03:07:11.383Z,96046.19
2023-01-19T03:09:49.633Z,96043.72
2023-01-19T03:12:31.357Z,96034.09
2023-01-19T03:15:06.675Z,96025.91
2023-01-19T03:17:38.934Z,96034.50
2023-01-19T03:20:13.497Z,96037.63
2023-01-19T03:22:45.517Z,96024.50
2023-01-19T03:25:16.643Z,96014.44
2023-01-19T03:27:51.767Z,96024.91
2023-01-19T03:30:28.541Z,96011.78
2023-01-19T03:33:05.167Z,96013.88
2023-01-19T03:35:39.034Z,96002.56
2023-01-19T03:38:15.143Z,96016.13
2023-01-19T03:40:47.718Z,96016.38
2023-01-19T03:43:22.668Z,96009.63
2023-01-19T03:45:54.647Z,96022.13
2023-01-19T03:48:25.649Z,96033.03
2023-01-19T03:50:56.536Z,96022.56
2023-01-19T03:53:27.019Z,96018.84
2023-01-19T03:55:57.676Z,96017.22
2023-01-19T03:58:31.095Z,96017.44
2023-01-19T04:01:01.809Z,96020.31
2023-01-19T04:03:32.411Z,96017.88
2023-01-19T04:06:03.184Z,96025.88
2023-01-19T04:08:33.702Z,96037.38
2023-01-19T04:11:04.638Z,96038.19
2023-01-19T04:13:38.712Z,96055.25
2023-01-19T04:16:10.301Z,96046.41
2023-01-19T04:18:41.209Z,96050.94
2023-01-19T04:21:12.042Z,96050.94
2023-01-19T04:23:44.622Z,96058.34
2023-01-19T04:26:15.332Z,96060.19
2023-01-19T04:28:48.464Z,96051.75
2023-01-19T04:31:19.612Z,96059.19
2023-01-19T04:33:50.542Z,96062.66
2023-01-19T04:36:21.199Z,96064.53
2023-01-19T04:38:51.917Z,96066.16
2023-01-19T04:41:22.609Z,96070.44
2023-01-19T04:43:55.839Z,96070.44
2023-01-19T04:46:26.523Z,96070.66
2023-01-19T04:48:57.580Z,96065.78
2023-01-19T04:51:28.990Z,96086.31
2023-01-19T04:54:00.216Z,96089.59
2023-01-19T04:56:31.205Z,96100.06
2023-01-19T04:59:04.600Z,96103.56
2023-01-19T05:01:35.769Z,96103.69
2023-01-19T05:04:08.042Z,96108.75
2023-01-19T05:06:38.861Z,96102.59
2023-01-19T05:09:09.454Z,96113.97
2023-01-19T05:11:40.136Z,96121.50
2023-01-19T05:14:13.431Z,96130.09
2023-01-19T05:16:44.057Z,96129.94
2023-01-19T05:19:14.518Z,96119.81
2023-01-19T05:21:45.186Z,96117.66
2023-01-19T05:24:16.088Z,96123.81
2023-01-19T05:26:46.768Z,96137.16
2023-01-19T05:29:20.043Z,96133.34
2023-01-19T05:31:51.028Z,96130.19
2023-01-19T05:34:21.940Z,96141.97
2023-01-19T05:36:55.528Z,96129.38
2023-01-19T05:39:27.026Z,96145.34
2023-01-19T05:41:57.569Z,96148.13
2023-01-19T05:44:30.780Z,96140.66
2023-01-19T05:47:01.366Z,96148.25
2023-01-19T05:49:31.911Z,96153.63
2023-01-19T05:52:02.467Z,96151.19
2023-01-19T05:54:33.051Z,96153.44
2023-01-19T05:57:04.797Z,96143.59
2023-01-19T05:59:38.016Z,96150.75
2023-01-19T06:02:09.034Z,96158.38
2023-01-19T06:04:39.574Z,96158.97
2023-01-19T06:07:10.177Z,96140.06
2023-01-19T06:09:40.771Z,96139.22
2023-01-19T06:12:11.816Z,96146.41
2023-01-19T06:14:45.091Z,96143.91
2023-01-19T06:17:15.728Z,96139.59
2023-01-19T06:19:46.210Z,96140.00
2023-01-19T06:22:17.012Z,96130.53
2023-01-19T06:24:47.754Z,96139.75
2023-01-19T06:27:18.572Z,96152.25
2023-01-19T06:29:51.708Z,96152.44
2023-01-19T06:32:22.337Z,96166.78
2023-01-19T06:34:54.082Z,96166.16
2023-01-19T06:37:27.064Z,96167.97
2023-01-19T06:39:57.632Z,96187.69
2023-01-19T06:42:28.875Z,96205.72
2023-01-19T06:45:02.046Z,96198.91
2023-01-19T06:47:34.956Z,96211.88
2023-01-19T06:50:05.502Z,96193.75
2023-01-19T06:52:42.533Z,96199.72
2023-01-19T06:55:14.778Z,96184.72
2023-01-19T06:57:46.328Z,96202.97
2023-01-19T07:00:21.705Z,96192.09
2023-01-19T07:02:51.968Z,96202.78
2023-01-19T07:05:22.403Z,96207.31
2023-01-19T07:07:56.945Z,96208.13
2023-01-19T07:11:25.921Z,96209.75
2023-01-19T07:13:18.691Z,96206.88
2023-01-19T07:15:51.895Z,96214.47
2023-01-19T07:18:22.548Z,96210.34
2023-01-19T07:20:53.076Z,96214.66
2023-01-19T07:23:23.603Z,96220.38
2023-01-19T07:25:54.163Z,96224.50
2023-01-19T07:28:24.838Z,96211.13
2023-01-19T07:30:58.855Z,96210.09
2023-01-19T07:33:30.126Z,96224.03
2023-01-19T07:36:00.614Z,96230.22
2023-01-19T07:38:31.144Z,96224.03
2023-01-19T07:41:04.995Z,96247.06
2023-01-19T07:43:35.820Z,96227.56
2023-01-19T07:46:10.192Z,96228.34
2023-01-19T07:48:40.896Z,96223.63
2023-01-19T07:51:18.070Z,96226.09
2023-01-19T07:53:48.988Z,96223.22
2023-01-19T07:56:19.891Z,96226.47
2023-01-19T07:58:52.756Z,96224.41
2023-01-19T08:01:26.207Z,96227.25
2023-01-19T08:03:57.126Z,96228.47
2023-01-19T08:06:33.507Z,96220.41
2023-01-19T08:09:05.787Z,96228.41
2023-01-19T08:11:37.047Z,96241.97
2023-01-19T08:14:08.242Z,96233.06
2023-01-19T08:16:41.374Z,96235.47
2023-01-19T08:19:12.089Z,96230.91
2023-01-19T08:21:42.686Z,96246.22
2023-01-19T08:24:21.685Z,96232.38
2023-01-19T08:26:53.029Z,96236.03
2023-01-19T08:29:23.862Z,96237.97
2023-01-19T08:31:59.163Z,96235.59
2023-01-19T08:34:30.758Z,96237.78
2023-01-19T08:37:01.988Z,96235.03
2023-01-19T08:39:32.523Z,96234.16
2023-01-19T08:42:03.092Z,96221.22
2023-01-19T08:44:33.657Z,96241.88
2023-01-19T08:47:07.836Z,96232.38
2023-01-19T08:49:38.561Z,96241.38
2023-01-19T08:52:09.145Z,96222.78
2023-01-19T08:54:39.731Z,96221.50
2023-01-19T08:57:10.222Z,96222.25
2023-01-19T08:59:40.966Z,96227.97
2023-01-19T09:02:14.997Z,96221.34
2023-01-19T09:04:45.652Z,96204.81
2023-01-19T09:07:16.152Z,96200.69
2023-01-19T09:09:46.713Z,96204.31
2023-01-19T09:12:17.189Z,96196.41
2023-01-19T09:14:47.771Z,96206.56
2023-01-19T09:17:21.017Z,96181.69
2023-01-19T09:19:51.581Z,96187.91
2023-01-19T09:22:22.170Z,96185.81
2023-01-19T09:24:52.797Z,96184.19
2023-01-19T09:27:23.517Z,96182.34
2023-01-19T09:29:55.268Z,96171.28
2023-01-19T09:32:28.456Z,96169.88
2023-01-19T09:34:59.109Z,96164.72
2023-01-19T09:37:29.511Z,96162.88
2023-01-19T09:40:00.266Z,96167.19
2023-01-19T09:42:36.688Z,96167.53
2023-01-19T09:45:13.965Z,96169.63
2023-01-19T09:47:48.790Z,96161.16
2023-01-19T09:50:27.173Z,96154.38
2023-01-19T09:53:07.585Z,96163.69
2023-01-19T09:55:41.381Z,96181.66
2023-01-19T09:58:18.524Z,96168.38
2023-01-19T10:00:55.936Z,96148.16
2023-01-19T10:03:29.150Z,96132.66
2023-01-19T10:06:04.368Z,96144.09
2023-01-19T10:08:43.221Z,96153.06
2023-01-19T10:11:31.836Z,96165.31
2023-01-19T10:14:14.559Z,96148.69
2023-01-19T10:16:56.334Z,96153.59
2023-01-19T10:19:33.050Z,96135.34
2023-01-19T10:22:13.432Z,96128.53
2023-01-19T10:24:47.305Z,96140.72
2023-01-19T10:27:24.185Z,96114.84
2023-01-19T10:29:55.278Z,96125.06
2023-01-19T10:32:27.283Z,96130.44
2023-01-19T10:35:02.388Z,96114.59
2023-01-19T10:37:37.178Z,96123.09
2023-01-19T10:40:23.729Z,96107.34
2023-01-19T10:42:54.321Z,96093.53
2023-01-19T10:45:29.566Z,96106.97
2023-01-19T10:48:01.353Z,96113.94
2023-01-19T10:50:37.372Z,96116.03
2023-01-19T10:53:10.271Z,96111.88
2023-01-19T10:55:43.324Z,96122.25
2023-01-19T10:58:31.461Z,96098.69
2023-01-19T11:01:17.134Z,96092.06
2023-01-19T11:03:47.780Z,96101.91
2023-01-19T11:06:30.256Z,96108.53
2023-01-19T11:09:24.283Z,96085.94
2023-01-19T11:11:57.063Z,96098.22
2023-01-19T11:14:29.509Z,96091.31
2023-01-19T11:17:01.750Z,96088.41
2023-01-19T11:19:34.832Z,96089.28
2023-01-19T11:22:22.534Z,96090.41
2023-01-19T11:24:53.501Z,96078.25
2023-01-19T11:27:25.166Z,96086.91
2023-01-19T11:30:10.915Z,96087.72
2023-01-19T11:32:43.220Z,96096.63
2023-01-19T11:35:36.084Z,96095.25
2023-01-19T11:38:23.380Z,96098.53
2023-01-19T11:40:59.659Z,96123.31
2023-01-19T11:43:48.237Z,96090.81
2023-01-19T11:46:21.609Z,96104.19
2023-01-19T11:49:02.249Z,96104.13
2023-01-19T11:51:37.332Z,96086.19
2023-01-19T11:54:18.706Z,96096.66
2023-01-19T11:56:52.278Z,96098.47
2023-01-19T11:59:24.314Z,96085.81
2023-01-19T12:01:58.754Z,96101.75
2023-01-19T12:04:34.272Z,96104.44
2023-01-19T12:07:10.771Z,96105.50
2023-01-19T12:09:49.971Z,96093.91
2023-01-19T12:12:30.182Z,96083.91
2023-01-19T12:15:05.498Z,96105.78
2023-01-19T12:17:39.580Z,96089.28
2023-01-19T12:20:22.057Z,96094.91
2023-01-19T12:23:04.356Z,96095.25
2023-01-19T12:25:53.319Z,96088.22
2023-01-19T12:28:31.870Z,96090.13
2023-01-19T12:31:04.678Z,96066.16
2023-01-19T12:33:37.915Z,96076.19
2023-01-19T12:36:14.394Z,96063.75
2023-01-19T12:38:57.154Z,96071.00
2023-01-19T12:41:36.497Z,96054.81
2023-01-19T12:44:38.642Z,96059.13
2023-01-19T12:47:24.728Z,96058.06
2023-01-19T12:49:59.715Z,96050.25
2023-01-19T12:52:34.761Z,96072.09
2023-01-19T12:55:07.949Z,96056.66
2023-01-19T12:57:43.816Z,96063.88
2023-01-19T13:00:38.953Z,96063.03
2023-01-19T13:03:39.878Z,96050.25
2023-01-19T13:06:10.588Z,96048.94
2023-01-19T13:08:59.366Z,96034.00
2023-01-19T13:11:34.347Z,96040.50
2023-01-19T13:14:37.815Z,96050.66
2023-01-19T13:17:25.401Z,96048.72
2023-01-19T13:20:21.380Z,96046.78
2023-01-19T13:22:52.521Z,96057.78
2023-01-19T13:25:33.903Z,96052.06
2023-01-19T13:28:05.098Z,96054.66
2023-01-19T13:30:38.360Z,96070.78
2023-01-19T13:33:19.939Z,96056.19
2023-01-19T13:35:57.360Z,96057.19
2023-01-19T13:38:29.902Z,96060.38
2023-01-19T13:41:05.052Z,96066.53
2023-01-19T13:43:40.588Z,96065.66
2023-01-19T13:46:14.757Z,96056.44
2023-01-19T13:48:57.459Z,96048.53
2023-01-19T13:51:28.132Z,96046.84
2023-01-19T13:53:59.665Z,96021.44
2023-01-19T13:56:31.053Z,96046.38
2023-01-19T13:59:15.693Z,96049.00
2023-01-19T14:01:51.244Z,96049.75
2023-01-19T14:04:33.497Z,96046.75
2023-01-19T14:07:06.129Z,96051.81
2023-01-19T14:09:36.622Z,96060.63
2023-01-19T14:12:15.007Z,96043.31
2023-01-19T14:14:46.974Z,96047.00
2023-01-19T14:17:30.048Z,96057.94
2023-01-19T14:20:05.619Z,96032.56
2023-01-19T14:22:44.125Z,96057.25
2023-01-19T14:25:36.653Z,96063.38
2023-01-19T14:28:32.088Z,96073.00
2023-01-19T14:31:04.810Z,96064.84
2023-01-19T14:33:47.177Z,96076.56
2023-01-19T14:36:39.292Z,96076.72
2023-01-19T14:39:23.529Z,96090.91
2023-01-19T14:41:55.976Z,96086.47
2023-01-19T14:44:31.892Z,96085.34
2023-01-19T14:47:03.262Z,96100.56
2023-01-19T14:49:37.180Z,96101.75
2023-01-19T14:52:23.342Z,96099.81
2023-01-19T14:54:54.773Z,96096.19
2023-01-19T14:57:25.315Z,96085.13
2023-01-19T14:59:56.068Z,96103.47
2023-01-19T15:02:26.527Z,96104.44
2023-01-19T15:04:58.093Z,96114.50
2023-01-19T15:07:32.041Z,96107.63
2023-01-19T15:10:02.928Z,96110.44
2023-01-19T15:12:33.758Z,96124.00
2023-01-19T15:15:04.799Z,96121.88
2023-01-19T15:17:35.775Z,96112.69
2023-01-19T15:20:06.622Z,96102.31
2023-01-19T15:22:39.877Z,96114.56
2023-01-19T15:25:11.041Z,96109.88
2023-01-19T15:27:41.810Z,96111.41
2023-01-19T15:30:24.527Z,96124.03
2023-01-19T15:32:54.999Z,96118.13
2023-01-19T15:35:27.072Z,96130.72
2023-01-19T15:38:00.391Z,96143.59
2023-01-19T15:40:31.036Z,96140.56
2023-01-19T15:43:01.528Z,96145.75
2023-01-19T15:45:38.747Z,96134.59
2023-01-19T15:48:11.102Z,96135.75
2023-01-19T15:50:45.177Z,96148.94
2023-01-19T15:53:20.734Z,96124.72
2023-01-19T15:55:55.646Z,96126.69
2023-01-19T15:58:26.918Z,96148.09
2023-01-19T16:00:58.490Z,96155.19
2023-01-19T16:03:29.724Z,96149.91
2023-01-19T16:06:03.671Z,96157.66
2023-01-19T16:08:36.898Z,96160.63
2023-01-19T16:11:09.094Z,96174.72
2023-01-19T16:13:39.943Z,96177.16
2023-01-19T16:16:16.797Z,96161.03
2023-01-19T16:18:47.407Z,96153.22
2023-01-19T16:21:18.379Z,96175.16
2023-01-19T16:23:51.609Z,96182.50
2023-01-19T16:26:34.768Z,96176.31
2023-01-19T16:29:09.956Z,96161.78
2023-01-19T16:31:41.162Z,96177.03
2023-01-19T16:34:12.138Z,96172.22
2023-01-19T16:36:44.590Z,96180.69
2023-01-19T16:39:18.636Z,96169.03
2023-01-19T16:41:49.355Z,96183.19
2023-01-19T16:44:20.651Z,96179.91
2023-01-19T16:46:52.622Z,96195.84
2023-01-19T16:49:28.292Z,96193.00
2023-01-19T16:51:59.997Z,96210.06
2023-01-19T16:54:33.917Z,96188.47
2023-01-19T16:57:05.050Z,96207.00
2023-01-19T16:59:36.739Z,96198.81
2023-01-19T17:02:08.015Z,96195.91
2023-01-19T17:04:39.072Z,96200.03
2023-01-19T17:07:09.938Z,96211.16
2023-01-19T17:09:43.395Z,96207.47
2023-01-19T17:12:14.033Z,96223.47
2023-01-19T17:14:47.538Z,96222.84
2023-01-19T17:17:18.506Z,96224.34
2023-01-19T17:19:48.964Z,96225.53
2023-01-19T17:22:19.743Z,96221.03
2023-01-19T17:24:53.356Z,96229.47
2023-01-19T17:27:24.221Z,96226.59
2023-01-19T17:29:55.537Z,96221.63
2023-01-19T17:32:26.312Z,96232.09
2023-01-19T17:34:56.919Z,96226.41
2023-01-19T17:37:28.058Z,96234.19
2023-01-19T17:40:01.766Z,96230.06
2023-01-19T17:42:34.591Z,96233.34
2023-01-19T17:45:05.308Z,96230.44
2023-01-19T17:47:36.160Z,96221.78
2023-01-19T17:50:07.554Z,96234.19
2023-01-19T17:52:38.510Z,96221.84
2023-01-19T17:55:13.387Z,96213.81
2023-01-19T17:57:44.832Z,96206.91
2023-01-19T18:00:16.830Z,96206.97
2023-01-19T18:02:47.915Z,96198.75
2023-01-19T18:05:19.640Z,96195.56
2023-01-19T18:07:50.957Z,96191.97
2023-01-19T18:10:24.808Z,96180.63
2023-01-19T18:12:55.359Z,96183.22
2023-01-19T18:15:26.052Z,96168.84
2023-01-19T18:17:56.773Z,96168.63
2023-01-19T18:20:27.521Z,96168.63
2023-01-19T18:22:58.345Z,96178.84
2023-01-19T18:25:31.896Z,96168.25
2023-01-19T18:28:02.603Z,96167.06
2023-01-19T18:30:33.214Z,96155.19
2023-01-19T18:33:04.560Z,96169.53
2023-01-19T18:35:36.377Z,96178.56
2023-01-19T18:38:07.483Z,96172.47
2023-01-19T18:40:41.145Z,96185.56
2023-01-19T18:43:12.048Z,96180.84
2023-01-19T18:45:42.910Z,96184.47
2023-01-19T18:48:13.764Z,96199.88
2023-01-19T18:50:45.752Z,96202.03
2023-01-19T18:53:17.936Z,96214.50
2023-01-19T18:55:59.595Z,96212.38
2023-01-19T18:58:32.909Z,96214.94
2023-01-19T19:01:05.592Z,96211.31
2023-01-19T19:03:38.552Z,96217.94
2023-01-19T19:06:09.902Z,96212.22
2023-01-19T19:08:43.114Z,96194.22
2023-01-19T19:11:21.065Z,96214.91
2023-01-19T19:13:58.016Z,96204.84
2023-01-19T19:16:32.776Z,96215.63
2023-01-19T19:19:07.361Z,96211.66
2023-01-19T19:21:38.825Z,96208.34
2023-01-19T19:24:11.628Z,96203.03
2023-01-19T19:26:45.134Z,96217.91
2023-01-19T19:29:16.886Z,96221.69
2023-01-19T19:31:47.837Z,96232.06
2023-01-19T19:34:18.801Z,96249.75
2023-01-19T19:36:51.282Z,96235.66
2023-01-19T19:39:23.317Z,96238.56
2023-01-19T19:41:58.073Z,96232.63
2023-01-19T19:44:29.261Z,96228.09
2023-01-19T19:47:00.507Z,96230.13
2023-01-19T19:49:32.883Z,96243.19
2023-01-19T19:52:04.041Z,96238.06
2023-01-19T19:54:37.471Z,96238.22
2023-01-19T19:57:14.172Z,96227.06
2023-01-19T19:59:45.371Z,96222.91
2023-01-19T20:02:16.327Z,96222.06
2023-01-19T20:04:47.251Z,96223.66
2023-01-19T20:07:22.964Z,96223.63
2023-01-19T20:09:56.743Z,96222.38
2023-01-19T20:12:31.846Z,96214.31
2023-01-19T20:15:02.978Z,96220.03
2023-01-19T20:17:38.323Z,96209.97
2023-01-19T20:20:13.021Z,96207.69
2023-01-19T20:22:44.419Z,96213.84
2023-01-19T20:25:15.097Z,96210.53
2023-01-19T20:27:48.377Z,96192.84
2023-01-19T20:30:19.616Z,96191.00
2023-01-19T20:32:52.081Z,96190.69
2023-01-19T20:35:22.904Z,96200.56
2023-01-19T20:37:53.479Z,96191.44
2023-01-19T20:40:24.365Z,96170.69
2023-01-19T20:42:58.016Z,96180.81
2023-01-19T20:45:28.747Z,96184.28
2023-01-19T20:47:59.636Z,96178.59
2023-01-19T20:50:31.054Z,96179.44
2023-01-19T20:53:01.801Z,96182.34
2023-01-19T20:55:33.365Z,96172.88
2023-01-19T20:58:07.482Z,96182.53
2023-01-19T21:00:38.734Z,96188.47
2023-01-19T21:03:09.470Z,96191.81
2023-01-19T21:05:40.460Z,96179.88
2023-01-19T21:08:13.588Z,96176.84
2023-01-19T21:10:45.083Z,96189.00
2023-01-19T21:13:18.264Z,96182.84
2023-01-19T21:15:49.011Z,96159.47
2023-01-19T21:18:19.781Z,96152.88
2023-01-19T21:20:51.487Z,96152.69
2023-01-19T21:23:22.080Z,96159.94
2023-01-19T21:25:53.692Z,96163.63
2023-01-19T21:28:29.409Z,96150.50
2023-01-19T21:31:00.453Z,96143.28
2023-01-19T21:33:31.109Z,96148.00
2023-01-19T21:36:04.139Z,96152.53
2023-01-19T21:38:34.919Z,96139.16
2023-01-19T21:41:10.044Z,96130.38
2023-01-19T21:43:43.837Z,96138.22
2023-01-19T21:46:17.332Z,96135.34
2023-01-19T21:48:48.891Z,96138.44
2023-01-19T21:51:19.615Z,96142.50
2023-01-19T21:53:52.906Z,96101.28
2023-01-19T21:56:23.912Z,96123.03
2023-01-19T21:58:57.058Z,96129.75
2023-01-19T22:01:28.104Z,96108.41
2023-01-19T22:04:00.034Z,96111.09
2023-01-19T22:06:31.261Z,96107.78
2023-01-19T22:09:02.040Z,96102.81
2023-01-19T22:11:33.287Z,96110.41
2023-01-19T22:14:06.572Z,96097.34
2023-01-19T22:16:37.387Z,96094.75
2023-01-19T22:19:08.493Z,96097.44
2023-01-19T22:21:39.602Z,96091.09
2023-01-19T22:24:10.937Z,96088.03
2023-01-19T22:26:41.929Z,96095.22
2023-01-19T22:29:15.440Z,96101.97
2023-01-19T22:31:47.187Z,96083.31
2023-01-19T22:34:18.020Z,96114.88
2023-01-19T22:36:48.599Z,96100.13
2023-01-19T22:39:19.246Z,96093.34
2023-01-19T22:41:50.245Z,96102.78
2023-01-19T22:44:24.885Z,96093.97
2023-01-19T22:46:58.449Z,96077.19
2023-01-19T22:49:29.111Z,96060.59
2023-01-19T22:51:59.760Z,96056.47
2023-01-19T22:54:30.494Z,96062.81
2023-01-19T22:57:01.977Z,96049.28
2023-01-19T22:59:35.110Z,96024.25
2023-01-19T23:02:05.839Z,96011.94
2023-01-19T23:04:36.367Z,96005.72
2023-01-19T23:07:09.469Z,96003.03
2023-01-19T23:09:40.958Z,96010.19
2023-01-19T23:12:11.565Z,95996.97
2023-01-19T23:14:44.814Z,95995.06
2023-01-19T23:17:15.395Z,95975.59
2023-01-19T23:19:45.890Z,95981.47
2023-01-19T23:22:16.570Z,95998.06
2023-01-19T23:24:47.147Z,96001.63
2023-01-19T23:27:17.884Z,96004.06
2023-01-19T23:29:51.127Z,95998.44
2023-01-19T23:32:21.739Z,95975.94
2023-01-19T23:34:52.300Z,95956.53
2023-01-19T23:37:22.834Z,95945.28
2023-01-19T23:39:53.406Z,95936.88
2023-01-19T23:42:24.075Z,95960.63
2023-01-19T23:44:57.252Z,95906.41
2023-01-19T23:47:28.175Z,95918.69
2023-01-19T23:49:58.748Z,95898.81
2023-01-19T23:52:29.460Z,95912.72
2023-01-19T23:55:00.415Z,95901.66
2023-01-19T23:57:31.019Z,95926.44
